Terminal Aerodrome Forecast
Issued by NWS Sioux Falls, SD

Home | Current Version | Previous Version | Graphics & Text | Print | Product List | Glossary Off
Versions: 1 2 3 4 5 6 7 8 9 10 11 12 13 14 15 16 17 18

000
FTUS43 KFSD 281121
TAFHON
TAF
KHON 281121Z 2812/2912 30019G29KT P6SM OVC030
     FM281600 31018G27KT P6SM BKN035
     FM282230 30012KT P6SM SCT045
     FM290000 29005KT P6SM SKC=

USA.gov is the U.S. government's official web portal to all federal, state and local government web resources and services.